sensor_id;sensor_type;location;lat;lon;timestamp;temperature;humidity
85164;DHT22;75530;49.300;6.846;2024-01-06T16:56:58;40.10;99.90
85164;DHT22;75530;49.300;6.846;2024-01-06T17:00:02;39.00;99.90
85164;DHT22;75530;49.300;6.846;2024-01-06T17:03:08;38.20;99.90
85164;DHT22;75530;49.300;6.846;2024-01-06T17:06:13;37.50;99.90
85164;DHT22;75530;49.300;6.846;2024-01-06T17:09:14;36.90;99.90
85164;DHT22;75530;49.300;6.846;2024-01-06T17:13:32;36.30;99.90
85164;DHT22;75530;49.300;6.846;2024-01-06T17:16:32;36.10;99.90
85164;DHT22;75530;49.300;6.846;2024-01-06T17:19:35;42.90;99.90
85164;DHT22;75530;49.300;6.846;2024-01-06T17:22:36;43.00;99.90
85164;DHT22;75530;49.300;6.846;2024-01-06T17:25:39;40.30;99.90
85164;DHT22;75530;49.300;6.846;2024-01-06T17:29:53;39.10;99.90
85164;DHT22;75530;49.300;6.846;2024-01-06T17:32:56;38.00;99.90
85164;DHT22;75530;49.300;6.846;2024-01-06T17:35:59;37.30;99.90
85164;DHT22;75530;49.300;6.846;2024-01-06T17:39:00;36.70;99.90
85164;DHT22;75530;49.300;6.846;2024-01-06T17:42:02;36.10;99.90
85164;DHT22;75530;49.300;6.846;2024-01-06T17:45:08;35.60;99.90
85164;DHT22;75530;49.300;6.846;2024-01-06T17:48:11;42.10;99.90
85164;DHT22;75530;49.300;6.846;2024-01-06T17:51:12;43.60;99.90
85164;DHT22;75530;49.300;6.846;2024-01-06T17:54:12;40.80;99.90
85164;DHT22;75530;49.300;6.846;2024-01-06T17:57:14;39.20;99.90
85164;DHT22;75530;49.300;6.846;2024-01-06T18:00:20;38.40;99.90
85164;DHT22;75530;49.300;6.846;2024-01-06T18:03:22;37.70;99.90
85164;DHT22;75530;49.300;6.846;2024-01-06T18:06:26;37.00;99.90
85164;DHT22;75530;49.300;6.846;2024-01-06T18:09:28;36.30;99.90
85164;DHT22;75530;49.300;6.846;2024-01-06T18:12:29;35.80;99.90
85164;DHT22;75530;49.300;6.846;2024-01-06T18:15:30;38.70;99.90
85164;DHT22;75530;49.300;6.846;2024-01-06T18:18:33;44.10;99.90
85164;DHT22;75530;49.300;6.846;2024-01-06T18:21:35;42.20;99.90
85164;DHT22;75530;49.300;6.846;2024-01-06T18:24:42;40.00;99.90
85164;DHT22;75530;49.300;6.846;2024-01-06T18:27:45;39.00;99.90
85164;DHT22;75530;49.300;6.846;2024-01-06T18:30:53;38.10;99.90
85164;DHT22;75530;49.300;6.846;2024-01-06T18:34:02;37.30;99.90
85164;DHT22;75530;49.300;6.846;2024-01-06T18:37:07;36.60;99.90
85164;DHT22;75530;49.300;6.846;2024-01-06T18:40:12;36.00;99.90
85164;DHT22;75530;49.300;6.846;2024-01-06T18:43:17;39.20;99.90
85164;DHT22;75530;49.300;6.846;2024-01-06T18:46:20;44.30;99.90
85164;DHT22;75530;49.300;6.846;2024-01-06T18:49:24;42.20;99.90
85164;DHT22;75530;49.300;6.846;2024-01-06T18:52:25;40.10;99.90
85164;DHT22;75530;49.300;6.846;2024-01-06T18:55:26;39.00;99.90
85164;DHT22;75530;49.300;6.846;2024-01-06T18:58:29;38.30;99.90
85164;DHT22;75530;49.300;6.846;2024-01-06T19:01:33;37.50;99.90
85164;DHT22;75530;49.300;6.846;2024-01-06T19:04:36;36.70;99.90
85164;DHT22;75530;49.300;6.846;2024-01-06T19:07:39;36.10;99.90
85164;DHT22;75530;49.300;6.846;2024-01-06T19:10:47;39.00;99.90
85164;DHT22;75530;49.300;6.846;2024-01-06T19:13:56;44.40;99.90
85164;DHT22;75530;49.300;6.846;2024-01-06T19:16:59;42.50;99.90
85164;DHT22;75530;49.300;6.846;2024-01-06T19:20:02;40.20;99.90
85164;DHT22;75530;49.300;6.846;2024-01-06T19:23:06;39.10;99.90
85164;DHT22;75530;49.300;6.846;2024-01-06T19:26:16;38.20;99.90
85164;DHT22;75530;49.300;6.846;2024-01-06T19:29:38;37.40;99.90
85164;DHT22;75530;49.300;6.846;2024-01-06T19:33:01;36.60;99.90
85164;DHT22;75530;49.300;6.846;2024-01-06T19:36:05;36.00;99.90
85164;DHT22;75530;49.300;6.846;2024-01-06T19:39:06;42.90;99.90
85164;DHT22;75530;49.300;6.846;2024-01-06T19:42:07;44.00;99.90
85164;DHT22;75530;49.300;6.846;2024-01-06T19:45:07;41.10;99.90
85164;DHT22;75530;49.300;6.846;2024-01-06T19:48:14;39.40;99.90
85164;DHT22;75530;49.300;6.846;2024-01-06T19:51:16;38.50;99.90
85164;DHT22;75530;49.300;6.846;2024-01-06T19:54:16;37.70;99.90
85164;DHT22;75530;49.300;6.846;2024-01-06T19:57:19;36.90;99.90
85164;DHT22;75530;49.300;6.846;2024-01-06T20:00:21;36.30;99.90
85164;DHT22;75530;49.300;6.846;2024-01-06T20:03:27;38.10;99.90
85164;DHT22;75530;49.300;6.846;2024-01-06T20:06:30;44.30;99.90
85164;DHT22;75530;49.300;6.846;2024-01-06T20:09:33;43.10;99.90
85164;DHT22;75530;49.300;6.846;2024-01-06T20:12:39;40.60;99.90
85164;DHT22;75530;49.300;6.846;2024-01-06T20:18:52;38.40;99.90
85164;DHT22;75530;49.300;6.846;2024-01-06T20:22:14;37.60;99.90
85164;DHT22;75530;49.300;6.846;2024-01-06T20:25:17;36.80;99.90
85164;DHT22;75530;49.300;6.846;2024-01-06T20:28:17;36.20;99.90
85164;DHT22;75530;49.300;6.846;2024-01-06T20:31:18;35.60;99.90
85164;DHT22;75530;49.300;6.846;2024-01-06T20:34:21;35.00;99.90
85164;DHT22;75530;49.300;6.846;2024-01-06T20:37:21;34.50;99.90
85164;DHT22;75530;49.300;6.846;2024-01-06T20:40:22;33.90;99.90
85164;DHT22;75530;49.300;6.846;2024-01-06T20:43:27;33.40;99.90
85164;DHT22;75530;49.300;6.846;2024-01-06T20:46:31;32.90;99.90
85164;DHT22;75530;49.300;6.846;2024-01-06T20:49:31;32.30;99.90
85164;DHT22;75530;49.300;6.846;2024-01-06T20:52:32;31.90;99.90
85164;DHT22;75530;49.300;6.846;2024-01-06T20:55:32;31.50;99.90
85164;DHT22;75530;49.300;6.846;2024-01-06T20:58:33;31.00;99.90
85164;DHT22;75530;49.300;6.846;2024-01-06T21:01:34;30.60;99.90
85164;DHT22;75530;49.300;6.846;2024-01-06T21:04:34;30.20;99.90
85164;DHT22;75530;49.300;6.846;2024-01-06T21:07:38;29.80;99.90
85164;DHT22;75530;49.300;6.846;2024-01-06T21:10:44;29.50;99.90
85164;DHT22;75530;49.300;6.846;2024-01-06T21:13:47;29.10;99.90
85164;DHT22;75530;49.300;6.846;2024-01-06T21:16:56;28.70;99.90
85164;DHT22;75530;49.300;6.846;2024-01-06T21:19:59;28.40;99.90
85164;DHT22;75530;49.300;6.846;2024-01-06T21:23:03;28.10;99.90
85164;DHT22;75530;49.300;6.846;2024-01-06T21:26:06;27.80;99.90
85164;DHT22;75530;49.300;6.846;2024-01-06T21:29:14;27.50;99.90
85164;DHT22;75530;49.300;6.846;2024-01-06T21:32:17;27.30;99.90
85164;DHT22;75530;49.300;6.846;2024-01-06T21:35:21;27.00;99.90
85164;DHT22;75530;49.300;6.846;2024-01-06T21:38:23;26.70;99.90
85164;DHT22;75530;49.300;6.846;2024-01-06T21:41:29;26.60;99.90
85164;DHT22;75530;49.300;6.846;2024-01-06T21:44:29;26.30;99.90
85164;DHT22;75530;49.300;6.846;2024-01-06T21:47:32;26.10;99.90
85164;DHT22;75530;49.300;6.846;2024-01-06T21:50:35;25.80;99.90
85164;DHT22;75530;49.300;6.846;2024-01-06T21:53:36;25.60;99.90
85164;DHT22;75530;49.300;6.846;2024-01-06T21:56:36;25.40;99.90
85164;DHT22;75530;49.300;6.846;2024-01-06T21:59:37;25.20;99.90
85164;DHT22;75530;49.300;6.846;2024-01-06T22:02:38;25.00;99.90
85164;DHT22;75530;49.300;6.846;2024-01-06T22:05:38;24.80;99.90
85164;DHT22;75530;49.300;6.846;2024-01-06T22:08:39;24.60;99.90
85164;DHT22;75530;49.300;6.846;2024-01-06T22:11:40;24.50;99.90
85164;DHT22;75530;49.300;6.846;2024-01-06T22:14:41;24.20;99.90
85164;DHT22;75530;49.300;6.846;2024-01-06T22:17:43;29.30;99.90
85164;DHT22;75530;49.300;6.846;2024-01-06T22:20:44;39.10;99.90
85164;DHT22;75530;49.300;6.846;2024-01-06T22:23:44;38.70;99.90
85164;DHT22;75530;49.300;6.846;2024-01-06T22:26:45;36.50;99.90
85164;DHT22;75530;49.300;6.846;2024-01-06T22:29:45;35.90;99.90
85164;DHT22;75530;49.300;6.846;2024-01-06T22:32:48;35.20;99.90
85164;DHT22;75530;49.300;6.846;2024-01-06T22:35:52;34.60;99.90
85164;DHT22;75530;49.300;6.846;2024-01-06T22:38:53;33.90;99.90
85164;DHT22;75530;49.300;6.846;2024-01-06T22:41:53;33.20;99.90
85164;DHT22;75530;49.300;6.846;2024-01-06T22:44:54;32.60;99.90
85164;DHT22;75530;49.300;6.846;2024-01-06T22:47:58;31.90;99.90
85164;DHT22;75530;49.300;6.846;2024-01-06T22:50:58;31.40;99.90
85164;DHT22;75530;49.300;6.846;2024-01-06T22:53:59;30.80;99.90
85164;DHT22;75530;49.300;6.846;2024-01-06T22:57:07;30.40;99.90
85164;DHT22;75530;49.300;6.846;2024-01-06T23:00:07;29.90;99.90
85164;DHT22;75530;49.300;6.846;2024-01-06T23:03:13;29.50;99.90
85164;DHT22;75530;49.300;6.846;2024-01-06T23:06:13;29.10;99.90
85164;DHT22;75530;49.300;6.846;2024-01-06T23:09:14;28.70;99.90
85164;DHT22;75530;49.300;6.846;2024-01-06T23:12:16;28.40;99.90
85164;DHT22;75530;49.300;6.846;2024-01-06T23:15:21;28.00;99.90
85164;DHT22;75530;49.300;6.846;2024-01-06T23:18:24;27.70;99.90
85164;DHT22;75530;49.300;6.846;2024-01-06T23:21:28;27.40;99.90
85164;DHT22;75530;49.300;6.846;2024-01-06T23:24:32;27.10;99.90
85164;DHT22;75530;49.300;6.846;2024-01-06T23:27:35;26.80;99.90
85164;DHT22;75530;49.300;6.846;2024-01-06T23:30:41;26.60;99.90
85164;DHT22;75530;49.300;6.846;2024-01-06T23:33:41;26.30;99.90
85164;DHT22;75530;49.300;6.846;2024-01-06T23:36:42;26.10;99.90
85164;DHT22;75530;49.300;6.846;2024-01-06T23:39:42;25.80;99.90
85164;DHT22;75530;49.300;6.846;2024-01-06T23:42:43;25.60;99.90
85164;DHT22;75530;49.300;6.846;2024-01-06T23:45:44;25.40;99.90
85164;DHT22;75530;49.300;6.846;2024-01-06T23:48:44;25.20;99.90
85164;DHT22;75530;49.300;6.846;2024-01-06T23:51:45;25.00;99.90
85164;DHT22;75530;49.300;6.846;2024-01-06T23:54:45;24.80;99.90
85164;DHT22;75530;49.300;6.846;2024-01-06T23:57:46;24.70;99.90
